PWSweather.com
Personal Weather Stations
Station Observations
SPARKSRC
St. Petersburg, FL 33716

St. Petersburg, FL 33716

Lat: 27.876101, Lon: -82.657194

Elevation: 13

Station Type: Zephyr PWS-1000TD

Latest ConditionsUpdated 3:15:00 AM EDT Tuesday, Aug 30, 2016
Currently Today's Max Today's Min Today's Average
Temperature 78.6°F25.9°C 79.9°F26.6°C 78.6°F25.9°C 79.4°F26.3°C
Dew Point 73.8°F23.2°C 74.3°F23.5°C 73.6°F23.1°C 73.9°F23.3°C
Winds 6.0 mph E9.7 kmh E 12.1 mph E19.5 kmh E - 7.5 mph 12.1 kmh
Wind Gusts 9.8 mph15.8 kmh 19.0 mph30.6 kmh - -
Humidity 85% 85% 82% 83%
Pressure 29.69 in1005.4 mb 29.73 in1006.8 mb 29.69 in1005.4 mb -
Hour Temp Dew Point Humidity Winds Wind Gusts Pressure Precip Precip Rate Daily Precip Total
03:15 AM 78.6°F25.9°C 73.8°F23.2°C 85% 6.0 mph E9.7 kmh E 9.8 mph15.8 kmh 29.69 in1005.4 mb 0.00 in0.0 mm 0.00 in0.0 mm 0.00 in0.0 mm
03:10 AM 78.6°F25.9°C 73.8°F23.2°C 85% 5.4 mph E8.7 kmh E 9.8 mph15.8 kmh 29.69 in1005.4 mb 0.00 in0.0 mm 0.00 in0.0 mm 0.00 in0.0 mm
03:05 AM 78.8°F26.0°C 74.0°F23.3°C 85% 4.5 mph E7.2 kmh E 11.4 mph18.3 kmh 29.70 in1005.8 mb 0.00 in0.0 mm 0.00 in0.0 mm 0.00 in0.0 mm
03:00 AM 78.8°F26.0°C 74.0°F23.3°C 85% 3.8 mph E6.1 kmh E 11.4 mph18.3 kmh 29.69 in1005.4 mb 0.00 in0.0 mm 0.00 in0.0 mm 0.00 in0.0 mm
02:55 AM 78.8°F26.0°C 74.0°F23.3°C 85% 5.4 mph E8.7 kmh E 10.7 mph17.2 kmh 29.69 in1005.4 mb 0.00 in0.0 mm 0.00 in0.0 mm 0.00 in0.0 mm
02:50 AM 79.0°F26.1°C 74.1°F23.4°C 85% 5.4 mph E8.7 kmh E 10.7 mph17.2 kmh 29.70 in1005.8 mb 0.00 in0.0 mm 0.00 in0.0 mm 0.00 in0.0 mm
02:45 AM 79.0°F26.1°C 74.1°F23.4°C 85% 6.0 mph E9.7 kmh E 13.0 mph20.9 kmh 29.70 in1005.8 mb 0.00 in0.0 mm 0.00 in0.0 mm 0.00 in0.0 mm
02:40 AM 79.0°F26.1°C 74.1°F23.4°C 85% 6.0 mph E9.7 kmh E 13.0 mph20.9 kmh 29.70 in1005.8 mb 0.00 in0.0 mm 0.00 in0.0 mm 0.00 in0.0 mm
02:35 AM 79.0°F26.1°C 74.1°F23.4°C 85% 6.0 mph E9.7 kmh E 13.6 mph21.9 kmh 29.70 in1005.8 mb 0.00 in0.0 mm 0.00 in0.0 mm 0.00 in0.0 mm
02:30 AM 79.0°F26.1°C 73.8°F23.2°C 84% 9.2 mph E14.8 kmh E 13.6 mph21.9 kmh 29.70 in1005.8 mb 0.00 in0.0 mm 0.00 in0.0 mm 0.00 in0.0 mm
02:25 AM 79.2°F26.2°C 74.0°F23.3°C 84% 6.0 mph E9.7 kmh E 10.7 mph17.2 kmh 29.70 in1005.8 mb 0.00 in0.0 mm 0.00 in0.0 mm 0.00 in0.0 mm
02:20 AM 79.2°F26.2°C 74.0°F23.3°C 84% 5.4 mph E8.7 kmh E 12.1 mph19.5 kmh 29.70 in1005.8 mb 0.00 in0.0 mm 0.00 in0.0 mm 0.00 in0.0 mm
02:15 AM 79.2°F26.2°C 74.0°F23.3°C 84% 7.6 mph E12.2 kmh E 12.1 mph19.5 kmh 29.70 in1005.8 mb 0.00 in0.0 mm 0.00 in0.0 mm 0.00 in0.0 mm
02:10 AM 79.3°F26.3°C 74.1°F23.4°C 84% 5.4 mph E8.7 kmh E 9.8 mph15.8 kmh 29.70 in1005.8 mb 0.00 in0.0 mm 0.00 in0.0 mm 0.00 in0.0 mm
02:05 AM 79.3°F26.3°C 74.1°F23.4°C 84% 4.5 mph E7.2 kmh E 11.4 mph18.3 kmh 29.70 in1005.8 mb 0.00 in0.0 mm 0.00 in0.0 mm 0.00 in0.0 mm
02:00 AM 79.3°F26.3°C 74.1°F23.4°C 84% 7.6 mph E12.2 kmh E 11.4 mph18.3 kmh 29.70 in1005.8 mb 0.00 in0.0 mm 0.00 in0.0 mm 0.00 in0.0 mm
01:55 AM 79.5°F26.4°C 74.3°F23.5°C 84% 7.6 mph E12.2 kmh E 12.1 mph19.5 kmh 29.71 in1006.1 mb 0.00 in0.0 mm 0.00 in0.0 mm 0.00 in0.0 mm
01:50 AM 79.3°F26.3°C 74.1°F23.4°C 84% 6.9 mph E11.1 kmh E 12.1 mph19.5 kmh 29.71 in1006.1 mb 0.00 in0.0 mm 0.00 in0.0 mm 0.00 in0.0 mm
01:45 AM 79.3°F26.3°C 73.8°F23.2°C 83% 7.6 mph ENE12.2 kmh ENE 12.1 mph19.5 kmh 29.71 in1006.1 mb 0.00 in0.0 mm 0.00 in0.0 mm 0.00 in0.0 mm
01:40 AM 79.5°F26.4°C 74.0°F23.3°C 83% 7.6 mph E12.2 kmh E 15.2 mph24.5 kmh 29.72 in1006.4 mb 0.00 in0.0 mm 0.00 in0.0 mm 0.00 in0.0 mm
01:35 AM 79.7°F26.5°C 74.1°F23.4°C 83% 7.6 mph E12.2 kmh E 15.9 mph25.6 kmh 29.72 in1006.4 mb 0.00 in0.0 mm 0.00 in0.0 mm 0.00 in0.0 mm
01:30 AM 79.7°F26.5°C 74.1°F23.4°C 83% 6.9 mph E11.1 kmh E 15.9 mph25.6 kmh 29.72 in1006.4 mb 0.00 in0.0 mm 0.00 in0.0 mm 0.00 in0.0 mm
01:25 AM 79.7°F26.5°C 74.1°F23.4°C 83% 7.6 mph E12.2 kmh E 15.9 mph25.6 kmh 29.72 in1006.4 mb 0.00 in0.0 mm 0.00 in0.0 mm 0.00 in0.0 mm
01:20 AM 79.5°F26.4°C 74.0°F23.3°C 83% 12.1 mph E19.5 kmh E 15.9 mph25.6 kmh 29.72 in1006.4 mb 0.00 in0.0 mm 0.00 in0.0 mm 0.00 in0.0 mm
01:15 AM 79.7°F26.5°C 74.1°F23.4°C 83% 9.2 mph E14.8 kmh E 16.8 mph27.0 kmh 29.72 in1006.4 mb 0.00 in0.0 mm 0.00 in0.0 mm 0.00 in0.0 mm
01:10 AM 79.7°F26.5°C 74.1°F23.4°C 83% 10.7 mph E17.2 kmh E 16.8 mph27.0 kmh 29.72 in1006.4 mb 0.00 in0.0 mm 0.00 in0.0 mm 0.00 in0.0 mm
01:05 AM 79.7°F26.5°C 74.1°F23.4°C 83% 9.2 mph E14.8 kmh E 19.0 mph30.6 kmh 29.72 in1006.4 mb 0.00 in0.0 mm 0.00 in0.0 mm 0.00 in0.0 mm
01:00 AM 79.7°F26.5°C 74.1°F23.4°C 83% 10.7 mph E17.2 kmh E 19.0 mph30.6 kmh 29.72 in1006.4 mb 0.00 in0.0 mm 0.00 in0.0 mm 0.00 in0.0 mm
12:55 AM 79.7°F26.5°C 73.8°F23.2°C 82% 7.6 mph E12.2 kmh E 17.4 mph28.0 kmh 29.72 in1006.4 mb 0.00 in0.0 mm 0.00 in0.0 mm 0.00 in0.0 mm
12:50 AM 79.7°F26.5°C 73.8°F23.2°C 82% 9.2 mph E14.8 kmh E 17.4 mph28.0 kmh 29.72 in1006.4 mb 0.00 in0.0 mm 0.00 in0.0 mm 0.00 in0.0 mm
12:45 AM 79.5°F26.4°C 73.6°F23.1°C 82% 9.8 mph E15.8 kmh E 15.2 mph24.5 kmh 29.72 in1006.4 mb 0.00 in0.0 mm 0.00 in0.0 mm 0.00 in0.0 mm
12:40 AM 79.5°F26.4°C 73.6°F23.1°C 82% 8.3 mph E13.4 kmh E 13.0 mph20.9 kmh 29.73 in1006.8 mb 0.00 in0.0 mm 0.00 in0.0 mm 0.00 in0.0 mm
12:35 AM 79.5°F26.4°C 73.6°F23.1°C 82% 9.2 mph E14.8 kmh E 15.2 mph24.5 kmh 29.72 in1006.4 mb 0.00 in0.0 mm 0.00 in0.0 mm 0.00 in0.0 mm
12:30 AM 79.5°F26.4°C 73.6°F23.1°C 82% 8.3 mph E13.4 kmh E 15.2 mph24.5 kmh 29.72 in1006.4 mb 0.00 in0.0 mm 0.00 in0.0 mm 0.00 in0.0 mm
12:25 AM 79.5°F26.4°C 73.6°F23.1°C 82% 9.2 mph ENE14.8 kmh ENE 13.6 mph21.9 kmh 29.72 in1006.4 mb 0.00 in0.0 mm 0.00 in0.0 mm 0.00 in0.0 mm
12:20 AM 79.7°F26.5°C 73.8°F23.2°C 82% 6.0 mph E9.7 kmh E 11.4 mph18.3 kmh 29.72 in1006.4 mb 0.00 in0.0 mm 0.00 in0.0 mm 0.00 in0.0 mm
12:15 AM 79.7°F26.5°C 73.8°F23.2°C 82% 9.2 mph E14.8 kmh E 12.1 mph19.5 kmh 29.72 in1006.4 mb 0.00 in0.0 mm 0.00 in0.0 mm 0.00 in0.0 mm
12:10 AM 79.7°F26.5°C 73.8°F23.2°C 82% 8.3 mph E13.4 kmh E 15.9 mph25.6 kmh 29.72 in1006.4 mb 0.00 in0.0 mm 0.00 in0.0 mm 0.00 in0.0 mm
12:05 AM 79.9°F26.6°C 73.9°F23.3°C 82% 9.2 mph E14.8 kmh E 15.9 mph25.6 kmh 29.72 in1006.4 mb 0.00 in0.0 mm 0.00 in0.0 mm 0.00 in0.0 mm
12:00 AM 79.9°F26.6°C 73.9°F23.3°C 82% 7.6 mph ENE12.2 kmh ENE 15.9 mph25.6 kmh 29.72 in1006.4 mb 0.00 in0.0 mm 0.00 in0.0 mm 0.00 in0.0 mm